Time;durP1;ratioP1;P1;durP2;ratioP2;P2;SDS_P1;SDS_P2;PMS_P1;PMS_P2;Temp;Humidity;BMP_temperature;BMP_pressure;BME280_temperature;BME280_humidity;BME280_pressure;Samples;Min_cycle;Max_cycle;Signal;HPM_P1;HPM_P2
2023/04/28 00:02:25;;;;;;;;;;;;;;;8.45;100.00;95617.56;10336823;28;1977;-69
2023/04/28 00:07:28;;;;;;;;;;;;;;;8.48;100.00;95610.88;10351973;28;1916;-76
2023/04/28 00:12:30;;;;;;;;;;;;;;;8.60;100.00;95614.13;10357938;28;1931;-72
2023/04/28 00:17:33;;;;;;;;;;;;;;;8.66;100.00;95603.16;10352688;28;1983;-69
2023/04/28 00:22:35;;;;;;;;;;;;;;;8.66;100.00;95603.16;10357421;28;2005;-71
2023/04/28 00:27:38;;;;;;;;;;;;;;;8.73;100.00;95597.53;10353722;28;2020;-71
2023/04/28 00:32:40;;;;;;;;;;;;;;;8.74;100.00;95593.00;10354431;28;1981;-75
2023/04/28 00:37:43;;;;;;;;;;;;;;;8.79;100.00;95584.97;10358513;28;1993;-73
2023/04/28 00:42:45;;;;;;;;;;;;;;;8.81;100.00;95582.81;10350364;28;5076;-71
2023/04/28 00:47:47;;;;;;;;;;;;;;;8.76;100.00;95586.28;10352484;28;2052;-72
2023/04/28 00:52:50;;;;;;;;;;;;;;;8.77;100.00;95589.75;10351757;28;2123;-70
2023/04/28 00:57:52;;;;;;;;;;;;;;;8.75;100.00;95584.69;10353202;28;1926;-71
2023/04/28 01:02:55;;;;;;;;;;;;;;;8.74;100.00;95577.72;10355813;28;1966;-71
2023/04/28 01:07:58;;;;;;;;;;;;;;;8.75;100.00;95573.16;10356476;28;2043;-71
2023/04/28 01:13:01;;;;;;;;;;;;;;;8.71;100.00;95564.03;10360325;28;1987;-71
2023/04/28 01:18:04;;;;;;;;;;;;;;;8.72;100.00;95557.63;10332603;28;2021;-70
2023/04/28 01:23:07;;;;;;;;;;;;;;;8.81;100.00;95550.66;10361840;28;1930;-69
2023/04/28 01:28:10;;;;;;;;;;;;;;;8.75;100.00;95554.41;10359117;28;2123;-71
2023/04/28 01:33:12;;;;;;;;;;;;;;;8.76;100.00;95545.28;10357695;28;2147;-71
2023/04/28 01:38:15;;;;;;;;;;;;;;;8.81;100.00;95546.09;10354796;28;2038;-72
2023/04/28 01:43:17;;;;;;;;;;;;;;;8.79;100.00;95537.53;10352956;28;5072;-72
2023/04/28 01:48:20;;;;;;;;;;;;;;;8.77;100.00;95538.84;10355189;28;2190;-71
2023/04/28 01:53:22;;;;;;;;;;;;;;;8.77;100.00;95549.56;10348838;28;1976;-71
2023/04/28 01:58:25;;;;;;;;;;;;;;;8.86;100.00;95545.28;10338692;28;2121;-70
2023/04/28 02:03:28;;;;;;;;;;;;;;;8.87;100.00;95533.50;10360882;28;2060;-72
2023/04/28 02:08:31;;;;;;;;;;;;;;;8.74;100.00;95539.38;10360211;28;1955;-71
2023/04/28 02:13:33;;;;;;;;;;;;;;;8.84;100.00;95547.41;10335329;28;1982;-72
2023/04/28 02:18:36;;;;;;;;;;;;;;;8.89;100.00;95552.78;10347969;28;2032;-70
2023/04/28 02:23:38;;;;;;;;;;;;;;;8.98;100.00;95553.88;10355179;28;2066;-70
2023/04/28 02:28:41;;;;;;;;;;;;;;;9.07;100.00;95554.94;10353163;28;2117;-69
2023/04/28 02:33:44;;;;;;;;;;;;;;;9.05;100.00;95542.88;10350122;28;1938;-71
2023/04/28 02:38:46;;;;;;;;;;;;;;;9.06;100.00;95547.97;10353961;28;1977;-70
2023/04/28 02:43:49;;;;;;;;;;;;;;;9.05;100.00;95524.91;10347943;28;5028;-71
2023/04/28 02:48:52;;;;;;;;;;;;;;;9.02;100.00;95546.09;10358127;28;1958;-74
2023/04/28 02:53:55;;;;;;;;;;;;;;;8.93;100.00;95529.75;10355432;28;1985;-74
2023/04/28 02:58:58;;;;;;;;;;;;;;;8.74;100.00;95508.03;10353814;28;2008;-71
2023/04/28 03:04:00;;;;;;;;;;;;;;;8.54;100.00;95524.91;10352756;28;1989;-71
2023/04/28 03:09:03;;;;;;;;;;;;;;;8.53;100.00;95523.31;10346558;28;1990;-70
2023/04/28 03:14:06;;;;;;;;;;;;;;;8.58;100.00;95517.94;10357414;28;2008;-71
2023/04/28 03:19:09;;;;;;;;;;;;;;;8.65;100.00;95515.81;10351273;28;2414;-71
2023/04/28 03:24:11;;;;;;;;;;;;;;;8.70;100.00;95522.22;10352219;28;2042;-75
2023/04/28 03:29:14;;;;;;;;;;;;;;;8.66;100.00;95528.13;10364661;28;1880;-73
2023/04/28 03:34:17;;;;;;;;;;;;;;;8.66;100.00;95525.47;10355657;28;1890;-74
2023/04/28 03:39:20;;;;;;;;;;;;;;;8.58;100.00;95517.13;10360179;28;2038;-70
2023/04/28 03:44:23;;;;;;;;;;;;;;;8.53;100.00;95517.94;10347921;28;5024;-72
2023/04/28 03:49:25;;;;;;;;;;;;;;;8.51;100.00;95516.59;10355573;28;1941;-71
2023/04/28 03:54:28;;;;;;;;;;;;;;;8.51;100.00;95524.63;10350377;28;1990;-71
2023/04/28 03:59:30;;;;;;;;;;;;;;;8.57;100.00;95532.41;10349557;28;1957;-71
2023/04/28 04:04:33;;;;;;;;;;;;;;;8.56;100.00;95533.47;10353268;28;2021;-71
2023/04/28 04:09:36;;;;;;;;;;;;;;;8.60;100.00;95531.88;10351651;28;1986;-71
2023/04/28 04:14:39;;;;;;;;;;;;;;;8.60;100.00;95539.13;10354394;28;2038;-71
2023/04/28 04:19:42;;;;;;;;;;;;;;;8.57;100.00;95540.44;10356111;28;1927;-72
2023/04/28 04:24:45;;;;;;;;;;;;;;;8.53;100.00;95543.94;10358169;28;2094;-70
2023/04/28 04:29:47;;;;;;;;;;;;;;;8.51;100.00;95530.78;10356546;28;2083;-71
2023/04/28 04:34:50;;;;;;;;;;;;;;;8.43;100.00;95517.13;10351709;28;1984;-70
2023/04/28 04:39:53;;;;;;;;;;;;;;;8.36;100.00;95522.72;10342481;28;5086;-71
2023/04/28 04:44:55;;;;;;;;;;;;;;;8.42;100.00;95529.72;10329451;28;2060;-70
2023/04/28 04:49:58;;;;;;;;;;;;;;;8.50;100.00;95523.03;10347806;28;1974;-70
2023/04/28 04:55:01;;;;;;;;;;;;;;;8.47;100.00;95518.22;10350340;28;1941;-70
2023/04/28 05:00:04;;;;;;;;;;;;;;;8.48;100.00;95515.25;10356269;28;2045;-70
2023/04/28 05:05:07;;;;;;;;;;;;;;;8.52;100.00;95527.03;10352799;28;2048;-72
2023/04/28 05:10:22;;;;;;;;;;;;;;;8.43;100.00;95539.34;10358231;28;1883;-72
2023/04/28 05:15:25;;;;;;;;;;;;;;;8.57;100.00;95543.13;10357424;28;2017;-71
2023/04/28 05:20:28;;;;;;;;;;;;;;;8.73;100.00;95543.16;10355183;28;2313;-70
2023/04/28 05:25:30;;;;;;;;;;;;;;;8.81;100.00;95554.13;10359357;28;1968;-71
2023/04/28 05:30:33;;;;;;;;;;;;;;;8.93;100.00;95553.88;10357871;28;1962;-72
2023/04/28 05:35:36;;;;;;;;;;;;;;;8.97;100.00;95541.53;10354457;28;2086;-69
2023/04/28 05:40:39;;;;;;;;;;;;;;;9.01;100.00;95539.91;10354452;28;5012;-71
2023/04/28 05:45:41;;;;;;;;;;;;;;;9.09;100.00;95539.38;10351281;28;1948;-70
2023/04/28 05:50:43;;;;;;;;;;;;;;;9.18;100.00;95540.44;10355167;28;2068;-70
2023/04/28 05:55:46;;;;;;;;;;;;;;;9.16;100.00;95526.50;10355055;28;2065;-71
2023/04/28 06:00:48;;;;;;;;;;;;;;;9.37;100.00;95526.47;10357053;28;2017;-71
2023/04/28 06:05:50;;;;;;;;;;;;;;;9.47;100.00;95537.16;10355539;28;2048;-71
2023/04/28 06:10:53;;;;;;;;;;;;;;;9.51;100.00;95540.13;10354995;28;2004;-71
2023/04/28 06:15:55;;;;;;;;;;;;;;;9.57;100.00;95537.16;10358027;28;2064;-70
2023/04/28 06:20:58;;;;;;;;;;;;;;;9.63;100.00;95530.69;10354765;28;2017;-69
2023/04/28 06:26:00;;;;;;;;;;;;;;;9.68;100.00;95528.00;10358148;28;1968;-71
2023/04/28 06:31:03;;;;;;;;;;;;;;;9.72;100.00;95512.13;10361362;28;1968;-71
2023/04/28 06:36:05;;;;;;;;;;;;;;;9.81;100.00;95515.06;10353098;28;2009;-70
2023/04/28 06:41:07;;;;;;;;;;;;;;;10.01;100.00;95520.34;10354291;28;5064;-72
2023/04/28 06:46:10;;;;;;;;;;;;;;;10.05;100.00;95513.31;10355839;28;1985;-70
2023/04/28 06:51:12;;;;;;;;;;;;;;;10.28;100.00;95509.22;10357573;28;1899;-71
2023/04/28 06:56:15;;;;;;;;;;;;;;;10.57;100.00;95503.94;10353828;28;1964;-71
2023/04/28 07:01:17;;;;;;;;;;;;;;;11.20;100.00;95487.00;10353604;28;1989;-75
2023/04/28 07:06:20;;;;;;;;;;;;;;;11.73;100.00;95482.38;10358273;28;1958;-72
2023/04/28 07:11:22;;;;;;;;;;;;;;;12.03;100.00;95465.06;10361750;28;1758;-71
2023/04/28 07:16:25;;;;;;;;;;;;;;;12.34;100.00;95468.16;10365808;28;1914;-72
2023/04/28 07:21:28;;;;;;;;;;;;;;;12.34;100.00;95470.84;10360830;28;1722;-72
2023/04/28 07:26:30;;;;;;;;;;;;;;;12.45;100.00;95469.59;10349668;28;2087;-72
2023/04/28 07:31:32;;;;;;;;;;;;;;;12.33;100.00;95473.81;10363730;28;1842;-72
2023/04/28 07:36:35;;;;;;;;;;;;;;;12.05;100.00;95465.56;10359268;28;1914;-71
2023/04/28 07:41:37;;;;;;;;;;;;;;;11.90;100.00;95469.28;10355450;28;5075;-79
2023/04/28 07:46:40;;;;;;;;;;;;;;;11.88;100.00;95471.44;10354883;28;1920;-71
2023/04/28 07:51:42;;;;;;;;;;;;;;;12.09;100.00;95480.09;10340152;28;1980;-70
2023/04/28 07:56:45;;;;;;;;;;;;;;;11.88;100.00;95494.88;10349074;28;1943;-73
2023/04/28 08:01:47;;;;;;;;;;;;;;;11.81;100.00;95497.94;10352443;28;1923;-71
2023/04/28 08:06:50;;;;;;;;;;;;;;;11.65;100.00;95499.19;10356070;28;1850;-72
2023/04/28 08:11:52;;;;;;;;;;;;;;;11.49;100.00;95503.13;10356791;28;1999;-72
2023/04/28 08:16:54;;;;;;;;;;;;;;;11.58;100.00;95504.91;10356928;28;1985;-71
2023/04/28 08:21:58;;;;;;;;;;;;;;;11.58;100.00;95507.59;10348765;28;2050;-73
2023/04/28 08:27:02;;;;;;;;;;;;;;;11.70;100.00;95496.41;10354812;28;1887;-72
2023/04/28 08:32:05;;;;;;;;;;;;;;;11.53;100.00;95491.50;10360540;28;1909;-71
2023/04/28 08:37:07;;;;;;;;;;;;;;;11.45;100.00;95484.06;10342590;28;2091;-72
2023/04/28 08:42:10;;;;;;;;;;;;;;;11.23;100.00;95492.63;10367685;28;5040;-72
2023/04/28 08:47:13;;;;;;;;;;;;;;;11.11;100.00;95489.50;10361390;28;1925;-71
2023/04/28 08:52:16;;;;;;;;;;;;;;;11.24;100.00;95485.34;10358486;28;2018;-72
2023/04/28 08:57:19;;;;;;;;;;;;;;;11.35;100.00;95468.00;10362128;28;2075;-73
2023/04/28 09:02:25;;;;;;;;;;;;;;;11.33;100.00;95464.81;10351853;28;1862;-72
2023/04/28 09:07:27;;;;;;;;;;;;;;;11.66;100.00;95471.16;10371177;28;1888;-73
2023/04/28 09:12:30;;;;;;;;;;;;;;;11.81;100.00;95457.53;10358333;28;2389;-73
2023/04/28 09:17:33;;;;;;;;;;;;;;;11.83;100.00;95458.06;10339415;28;2032;-73
2023/04/28 09:22:35;;;;;;;;;;;;;;;11.73;100.00;95446.59;10356196;28;1865;-72
2023/04/28 09:27:37;;;;;;;;;;;;;;;11.79;100.00;95443.53;10361821;28;1928;-73
2023/04/28 09:32:40;;;;;;;;;;;;;;;11.70;100.00;95452.53;10347406;28;1893;-73
2023/04/28 09:37:42;;;;;;;;;;;;;;;11.42;100.00;95463.09;10366002;28;1980;-73
2023/04/28 09:42:46;;;;;;;;;;;;;;;11.30;100.00;95454.59;10352244;28;5115;-73
2023/04/28 09:47:49;;;;;;;;;;;;;;;11.14;100.00;95451.28;10359668;28;1884;-71
2023/04/28 09:52:52;;;;;;;;;;;;;;;10.96;100.00;95452.81;10362251;28;2080;-71
2023/04/28 09:57:54;;;;;;;;;;;;;;;11.05;100.00;95448.41;10359434;28;1936;-71
2023/04/28 10:02:58;;;;;;;;;;;;;;;10.98;100.00;95447.13;10361145;28;1794;-72
2023/04/28 10:08:01;;;;;;;;;;;;;;;11.08;100.00;95447.84;10357999;28;1857;-72
2023/04/28 10:13:03;;;;;;;;;;;;;;;11.19;100.00;95453.91;10362059;28;2049;-72
2023/04/28 10:18:06;;;;;;;;;;;;;;;11.21;100.00;95457.13;10359462;28;2043;-73
2023/04/28 10:23:09;;;;;;;;;;;;;;;11.06;100.00;95441.13;10350845;28;2090;-74
2023/04/28 10:28:11;;;;;;;;;;;;;;;11.16;100.00;95441.03;10361602;28;1898;-71
2023/04/28 10:33:14;;;;;;;;;;;;;;;11.19;100.00;95443.13;10356704;28;2032;-72
2023/04/28 10:38:16;;;;;;;;;;;;;;;11.30;100.00;95447.34;10352337;28;1910;-72
2023/04/28 10:43:18;;;;;;;;;;;;;;;11.37;100.00;95445.09;10351167;28;5016;-71
2023/04/28 10:48:21;;;;;;;;;;;;;;;11.38;100.00;95433.25;10355311;28;1916;-72
2023/04/28 10:53:23;;;;;;;;;;;;;;;11.47;100.00;95438.81;10353746;28;1936;-72
2023/04/28 10:58:26;;;;;;;;;;;;;;;11.29;100.00;95436.88;10349179;28;2110;-71
2023/04/28 11:03:28;;;;;;;;;;;;;;;11.48;100.00;95445.00;10335968;28;1910;-71
2023/04/28 11:08:32;;;;;;;;;;;;;;;11.61;100.00;95444.28;10353032;28;2092;-71
2023/04/28 11:13:34;;;;;;;;;;;;;;;11.45;100.00;95453.63;10357323;28;2322;-71
2023/04/28 11:18:37;;;;;;;;;;;;;;;11.43;100.00;95456.63;10352646;28;1916;-73
2023/04/28 11:23:40;;;;;;;;;;;;;;;11.54;100.00;95454.63;10359528;28;1953;-70
2023/04/28 11:28:42;;;;;;;;;;;;;;;11.68;100.00;95462.78;10365073;28;1920;-70
2023/04/28 11:33:45;;;;;;;;;;;;;;;11.50;100.00;95458.97;10354406;28;1845;-72
2023/04/28 11:38:48;;;;;;;;;;;;;;;11.53;100.00;95459.19;10359346;28;1985;-71
2023/04/28 11:43:50;;;;;;;;;;;;;;;11.70;100.00;95452.53;10362211;28;5021;-72
2023/04/28 11:48:53;;;;;;;;;;;;;;;11.80;100.00;95453.22;10352965;28;2251;-72
2023/04/28 11:53:56;;;;;;;;;;;;;;;11.79;100.00;95450.81;10351825;28;1905;-72
2023/04/28 11:58:58;;;;;;;;;;;;;;;11.79;100.00;95448.13;10350292;28;1968;-73
2023/04/28 12:04:03;;;;;;;;;;;;;;;11.85;100.00;95447.78;10354441;28;1921;-73
2023/04/28 12:09:06;;;;;;;;;;;;;;;11.84;100.00;95443.50;10362422;28;2417;-72
2023/04/28 12:14:09;;;;;;;;;;;;;;;11.84;100.00;95442.72;10370670;28;2150;-71
2023/04/28 12:19:14;;;;;;;;;;;;;;;12.16;100.00;95444.69;10358319;28;1911;-74
2023/04/28 12:24:16;;;;;;;;;;;;;;;12.53;100.00;95451.94;10359269;28;1841;-74
2023/04/28 12:29:19;;;;;;;;;;;;;;;12.74;100.00;95452.44;10352426;28;2063;-73
2023/04/28 12:34:22;;;;;;;;;;;;;;;13.14;100.00;95460.94;10368575;28;1908;-72
2023/04/28 12:39:25;;;;;;;;;;;;;;;13.38;100.00;95447.28;10359616;28;1938;-70
2023/04/28 12:44:28;;;;;;;;;;;;;;;13.78;100.00;95453.78;10360923;28;5643;-69
2023/04/28 12:49:30;;;;;;;;;;;;;;;14.03;100.00;95447.06;10355696;28;1880;-71
2023/04/28 12:54:33;;;;;;;;;;;;;;;13.89;100.00;95443.59;10356747;28;1896;-71
2023/04/28 12:59:35;;;;;;;;;;;;;;;13.71;100.00;95458.81;10363278;28;1918;-71
2023/04/28 13:04:37;;;;;;;;;;;;;;;13.78;100.00;95440.28;10360167;28;2065;-71
2023/04/28 13:09:41;;;;;;;;;;;;;;;13.73;100.00;95440.38;10360835;28;2139;-68
2023/04/28 13:14:44;;;;;;;;;;;;;;;13.69;100.00;95431.31;10357177;28;2369;-71
2023/04/28 13:19:47;;;;;;;;;;;;;;;13.94;100.00;95438.09;10352012;28;2009;-69
2023/04/28 13:24:49;;;;;;;;;;;;;;;13.86;100.00;95426.06;10362535;28;1872;-70
2023/04/28 13:29:51;;;;;;;;;;;;;;;13.81;100.00;95418.09;10359845;28;1929;-69
2023/04/28 13:34:54;;;;;;;;;;;;;;;13.77;100.00;95411.69;10361422;28;1913;-70
2023/04/28 13:39:57;;;;;;;;;;;;;;;13.85;100.00;95413.66;10361058;28;5088;-71
2023/04/28 13:44:59;;;;;;;;;;;;;;;14.50;100.00;95407.88;10361248;28;2004;-71
2023/04/28 13:50:02;;;;;;;;;;;;;;;15.19;100.00;95395.88;10368808;28;1892;-74
2023/04/28 13:55:04;;;;;;;;;;;;;;;14.99;100.00;95398.03;10367530;28;1894;-70
2023/04/28 14:00:07;;;;;;;;;;;;;;;15.14;100.00;95396.81;10358778;28;2036;-71
2023/04/28 14:05:09;;;;;;;;;;;;;;;14.83;100.00;95394.13;10363904;28;1924;-70
2023/04/28 14:10:11;;;;;;;;;;;;;;;14.80;100.00;95392.81;10355730;28;1904;-72
2023/04/28 14:15:14;;;;;;;;;;;;;;;14.89;100.00;95382.06;10356451;28;1937;-72
2023/04/28 14:20:16;;;;;;;;;;;;;;;14.85;100.00;95375.66;10360474;28;1981;-71
2023/04/28 14:25:19;;;;;;;;;;;;;;;14.99;100.00;95370.97;10363889;28;1945;-71
2023/04/28 14:30:21;;;;;;;;;;;;;;;15.03;100.00;95374.66;10358751;28;1924;-70
2023/04/28 14:35:24;;;;;;;;;;;;;;;14.92;100.00;95378.72;10351181;28;1904;-70
2023/04/28 14:40:26;;;;;;;;;;;;;;;14.42;100.00;95384.25;10356982;28;5088;-70
2023/04/28 14:45:28;;;;;;;;;;;;;;;14.01;100.00;95390.63;10358725;28;1885;-71
2023/04/28 14:50:31;;;;;;;;;;;;;;;13.75;100.00;95384.19;10352095;28;1912;-70
2023/04/28 14:55:33;;;;;;;;;;;;;;;13.90;100.00;95388.44;10352127;28;2280;-70
2023/04/28 15:00:36;;;;;;;;;;;;;;;13.95;100.00;95389.13;10364536;28;1981;-71
2023/04/28 15:05:38;;;;;;;;;;;;;;;14.02;100.00;95397.63;10357101;28;1856;-71
2023/04/28 15:10:41;;;;;;;;;;;;;;;13.96;100.00;95392.63;10348478;28;2055;-71
2023/04/28 15:15:43;;;;;;;;;;;;;;;13.78;100.00;95391.66;10353751;28;1821;-70
2023/04/28 15:20:46;;;;;;;;;;;;;;;13.52;100.00;95394.88;10352041;28;2063;-71
2023/04/28 15:25:51;;;;;;;;;;;;;;;13.59;100.00;95405.28;10332440;28;2144;-72
2023/04/28 15:30:54;;;;;;;;;;;;;;;13.65;100.00;95405.97;10356679;28;1833;-73
2023/04/28 15:35:56;;;;;;;;;;;;;;;13.43;100.00;95404.00;10361232;28;1998;-71
2023/04/28 15:40:59;;;;;;;;;;;;;;;13.25;100.00;95400.31;10356868;28;5233;-71
2023/04/28 15:46:03;;;;;;;;;;;;;;;13.01;100.00;95405.84;10350624;28;1916;-70
2023/04/28 15:51:05;;;;;;;;;;;;;;;12.88;100.00;95418.19;10356009;28;2037;-71
2023/04/28 15:56:08;;;;;;;;;;;;;;;12.78;100.00;95412.97;10357209;28;3181;-72
2023/04/28 16:01:10;;;;;;;;;;;;;;;12.70;100.00;95411.75;10367404;28;1918;-72
2023/04/28 16:06:13;;;;;;;;;;;;;;;12.75;100.00;95423.56;10354709;28;1789;-74
2023/04/28 16:11:19;;;;;;;;;;;;;;;12.62;100.00;95403.56;10353340;28;2150;-71
2023/04/28 16:16:22;;;;;;;;;;;;;;;12.63;100.00;95394.38;10356200;28;1876;-71
2023/04/28 16:21:24;;;;;;;;;;;;;;;12.33;100.00;95401.84;10343806;28;2214;-73
2023/04/28 16:26:27;;;;;;;;;;;;;;;12.29;100.00;95395.44;10349131;28;1814;-71
2023/04/28 16:31:29;;;;;;;;;;;;;;;12.35;100.00;95378.09;10346869;28;1836;-71
2023/04/28 16:36:32;;;;;;;;;;;;;;;12.35;100.00;95388.09;10352602;28;1829;-71
2023/04/28 16:41:36;;;;;;;;;;;;;;;12.42;100.00;95386.63;10352796;28;5171;-71
2023/04/28 16:46:39;;;;;;;;;;;;;;;12.38;100.00;95377.50;10352426;28;1900;-72
2023/04/28 16:51:42;;;;;;;;;;;;;;;12.33;100.00;95372.19;10343011;28;2201;-72
2023/04/28 16:56:45;;;;;;;;;;;;;;;12.24;100.00;95387.44;10358797;28;1888;-72
2023/04/28 17:01:47;;;;;;;;;;;;;;;12.14;100.00;95374.91;10350119;28;2099;-73
2023/04/28 17:06:50;;;;;;;;;;;;;;;12.24;100.00;95371.28;10358294;28;2072;-75
2023/04/28 17:11:52;;;;;;;;;;;;;;;12.22;100.00;95362.69;10356569;28;2028;-75
2023/04/28 17:16:55;;;;;;;;;;;;;;;12.27;100.00;95337.53;10363949;28;1932;-74
2023/04/28 17:21:59;;;;;;;;;;;;;;;12.23;100.00;95340.03;10358691;28;1918;-76
2023/04/28 17:27:01;;;;;;;;;;;;;;;12.21;100.00;95323.34;10353287;28;1829;-76
2023/04/28 17:32:06;;;;;;;;;;;;;;;12.20;100.00;95323.63;10355930;28;1857;-77
2023/04/28 17:37:08;;;;;;;;;;;;;;;12.11;100.00;95351.25;10350482;28;2094;-76
2023/04/28 17:42:11;;;;;;;;;;;;;;;12.01;100.00;95364.06;10350212;28;1925;-73
2023/04/28 17:47:13;;;;;;;;;;;;;;;12.13;100.00;95370.63;10354461;28;2070;-73
2023/04/28 17:52:18;;;;;;;;;;;;;;;12.16;100.00;95369.25;10349144;28;1877;-72
2023/04/28 17:57:20;;;;;;;;;;;;;;;12.13;100.00;95348.25;10352826;28;2052;-72
2023/04/28 18:02:23;;;;;;;;;;;;;;;12.18;100.00;95357.06;10361343;28;2016;-72
2023/04/28 18:07:26;;;;;;;;;;;;;;;12.28;100.00;95371.47;10355863;28;1880;-73
2023/04/28 18:12:29;;;;;;;;;;;;;;;12.28;100.00;95387.63;10361147;28;2095;-74
2023/04/28 18:17:32;;;;;;;;;;;;;;;12.17;100.00;95393.19;10346875;28;1854;-75
2023/04/28 18:22:34;;;;;;;;;;;;;;;12.17;100.00;95414.75;10360992;28;2140;-72
2023/04/28 18:27:37;;;;;;;;;;;;;;;11.83;100.00;95441.91;10355743;28;2111;-72
2023/04/28 18:32:41;;;;;;;;;;;;;;;11.59;100.00;95441.09;10351613;28;1963;-73
2023/04/28 18:37:43;;;;;;;;;;;;;;;11.44;100.00;95449.34;10331094;28;2092;-72
2023/04/28 18:42:46;;;;;;;;;;;;;;;11.39;100.00;95458.28;10347631;28;4939;-72
2023/04/28 18:47:49;;;;;;;;;;;;;;;11.12;100.00;95480.34;10348174;28;1900;-72
2023/04/28 18:52:52;;;;;;;;;;;;;;;11.06;100.00;95544.13;10353039;28;1939;-73
2023/04/28 18:57:55;;;;;;;;;;;;;;;10.82;100.00;95511.81;10353860;28;2124;-73
2023/04/28 19:02:57;;;;;;;;;;;;;;;10.69;100.00;95466.75;10358110;28;2010;-73
2023/04/28 19:08:00;;;;;;;;;;;;;;;10.72;100.00;95513.78;10360581;28;1841;-75
2023/04/28 19:13:02;;;;;;;;;;;;;;;10.70;100.00;95532.88;10363191;28;1640;-73
2023/04/28 19:18:05;;;;;;;;;;;;;;;10.71;100.00;95536.38;10343848;28;1530;-73
2023/04/28 19:23:07;;;;;;;;;;;;;;;10.56;100.00;95537.28;10354823;28;1979;-73
2023/04/28 19:28:10;;;;;;;;;;;;;;;10.62;100.00;95533.44;10356802;28;1965;-72
2023/04/28 19:33:12;;;;;;;;;;;;;;;10.56;100.00;95542.66;10344072;28;1885;-72
2023/04/28 19:38:16;;;;;;;;;;;;;;;10.61;100.00;95544.47;10350891;28;2390;-74
2023/04/28 19:43:18;;;;;;;;;;;;;;;10.70;100.00;95565.13;10350820;28;5009;-72
2023/04/28 19:48:22;;;;;;;;;;;;;;;10.74;100.00;95570.75;10350030;28;2127;-73
2023/04/28 19:53:24;;;;;;;;;;;;;;;10.76;100.00;95547.88;10350612;28;1936;-73
2023/04/28 19:58:30;;;;;;;;;;;;;;;10.72;100.00;95511.88;10351242;28;1813;-74
2023/04/28 20:03:33;;;;;;;;;;;;;;;10.70;100.00;95526.69;10354294;28;1947;-72
2023/04/28 20:08:36;;;;;;;;;;;;;;;10.74;100.00;95516.97;10347689;28;1957;-72
2023/04/28 20:13:39;;;;;;;;;;;;;;;10.74;100.00;95507.00;10355812;28;1939;-71
2023/04/28 20:18:42;;;;;;;;;;;;;;;10.79;100.00;95496.22;10345667;28;1881;-75
2023/04/28 20:23:44;;;;;;;;;;;;;;;10.80;100.00;95505.91;10343221;28;2005;-73
2023/04/28 20:28:47;;;;;;;;;;;;;;;10.77;100.00;95495.72;10359006;28;1832;-73
2023/04/28 20:33:49;;;;;;;;;;;;;;;10.75;100.00;95497.06;10355808;28;2312;-73
2023/04/28 20:38:52;;;;;;;;;;;;;;;10.70;100.00;95478.31;10361427;28;1825;-73
2023/04/28 20:43:55;;;;;;;;;;;;;;;10.63;100.00;95484.00;10363557;28;4927;-73
2023/04/28 20:48:58;;;;;;;;;;;;;;;10.53;100.00;95476.00;10358726;28;1943;-73
2023/04/28 20:54:02;;;;;;;;;;;;;;;10.38;100.00;95476.94;10347024;28;2154;-72
2023/04/28 20:59:05;;;;;;;;;;;;;;;10.29;100.00;95483.97;10346240;28;1802;-72
2023/04/28 21:04:08;;;;;;;;;;;;;;;10.19;100.00;95492.06;10365328;28;1918;-74
2023/04/28 21:09:12;;;;;;;;;;;;;;;10.15;100.00;95491.00;10353735;28;1825;-71
2023/04/28 21:14:15;;;;;;;;;;;;;;;10.12;100.00;95494.25;10355293;28;1794;-72
2023/04/28 21:19:17;;;;;;;;;;;;;;;10.07;100.00;95495.06;10358658;28;1849;-73
2023/04/28 21:24:20;;;;;;;;;;;;;;;10.03;100.00;95496.69;10354453;28;2044;-72
2023/04/28 21:29:23;;;;;;;;;;;;;;;9.99;100.00;95488.41;10344173;28;2281;-72
2023/04/28 21:34:26;;;;;;;;;;;;;;;9.91;100.00;95478.22;10360993;28;1949;-73
2023/04/28 21:39:28;;;;;;;;;;;;;;;9.86;100.00;95475.59;10354344;28;1853;-70
2023/04/28 21:44:31;;;;;;;;;;;;;;;9.78;100.00;95478.03;10355980;28;5321;-72
2023/04/28 21:49:34;;;;;;;;;;;;;;;9.81;100.00;95482.88;10363451;28;1861;-73
2023/04/28 21:54:36;;;;;;;;;;;;;;;9.85;100.00;95484.69;10364106;28;1917;-71
2023/04/28 21:59:39;;;;;;;;;;;;;;;9.82;100.00;95484.47;10354515;28;1956;-73
2023/04/28 22:04:42;;;;;;;;;;;;;;;9.88;100.00;95488.72;10357409;28;1922;-72
2023/04/28 22:09:45;;;;;;;;;;;;;;;9.97;100.00;95487.88;10350515;28;1956;-72
2023/04/28 22:14:47;;;;;;;;;;;;;;;10.02;100.00;95495.91;10350487;28;1977;-70
2023/04/28 22:19:51;;;;;;;;;;;;;;;10.06;100.00;95485.41;10359069;28;1849;-71
2023/04/28 22:24:54;;;;;;;;;;;;;;;9.89;100.00;95485.75;10348601;28;2110;-72
2023/04/28 22:29:57;;;;;;;;;;;;;;;9.90;100.00;95476.63;10357836;28;2012;-71
2023/04/28 22:35:00;;;;;;;;;;;;;;;9.92;100.00;95468.28;10353707;28;2240;-72
2023/04/28 22:40:03;;;;;;;;;;;;;;;9.80;100.00;95470.50;10336651;28;4978;-72
2023/04/28 22:45:06;;;;;;;;;;;;;;;9.69;100.00;95457.13;10356373;28;2074;-71
2023/04/28 22:50:08;;;;;;;;;;;;;;;9.58;100.00;95460.94;10350227;28;1964;-71
2023/04/28 22:55:11;;;;;;;;;;;;;;;9.53;100.00;95455.56;10355038;28;1868;-71
2023/04/28 23:00:15;;;;;;;;;;;;;;;9.51;100.00;95451.56;10360861;28;1975;-71
2023/04/28 23:05:17;;;;;;;;;;;;;;;9.44;100.00;95452.66;10358197;28;1822;-72
2023/04/28 23:10:20;;;;;;;;;;;;;;;9.34;100.00;95435.81;10355086;28;2036;-72
2023/04/28 23:15:22;;;;;;;;;;;;;;;9.31;100.00;95431.78;10353849;28;2013;-72
2023/04/28 23:20:24;;;;;;;;;;;;;;;9.17;100.00;95431.56;10347834;28;1985;-72
2023/04/28 23:25:27;;;;;;;;;;;;;;;9.19;100.00;95429.41;10355151;28;2046;-72
2023/04/28 23:30:29;;;;;;;;;;;;;;;9.19;100.00;95431.28;10345104;28;1857;-71
2023/04/28 23:35:32;;;;;;;;;;;;;;;9.07;100.00;95436.16;10356244;28;1944;-72
2023/04/28 23:40:35;;;;;;;;;;;;;;;9.05;100.00;95428.38;10356528;28;4859;-72
2023/04/28 23:45:37;;;;;;;;;;;;;;;9.03;100.00;95419.78;10344814;28;1918;-72
2023/04/28 23:50:39;;;;;;;;;;;;;;;9.13;100.00;95406.38;10347908;28;1880;-72
2023/04/28 23:55:42;;;;;;;;;;;;;;;9.02;100.00;95402.09;10355947;28;1977;-71
